Time;durP1;ratioP1;P1;durP2;ratioP2;P2;SDS_P1;SDS_P2;PMS_P1;PMS_P2;Temp;Humidity;BMP_temperature;BMP_pressure;BME280_temperature;BME280_humidity;BME280_pressure;Samples;Min_cycle;Max_cycle;Signal;HPM_P1;HPM_P2
2021/01/18 00:00:23;;;;;;;11.00;1.83;;;;;;;8.54;66.66;101337.84;4415339;32;20066;-76
2021/01/18 00:02:50;;;;;;;11.75;2.45;;;;;;;8.48;66.73;101325.44;4412013;32;20054;-76
2021/01/18 00:05:16;;;;;;;11.35;2.53;;;;;;;8.37;67.17;101318.31;4411434;32;20469;-77
2021/01/18 00:10:22;;;;;;;13.82;2.17;;;;;;;8.74;67.20;101324.84;3987620;32;15023630;-77
2021/01/18 00:12:50;;;;;;;11.65;1.85;;;;;;;8.74;67.20;101324.84;4444187;32;20396;-76
2021/01/18 00:15:17;;;;;;;12.15;1.83;;;;;;;8.32;67.69;101313.94;4443668;32;20065;-77
2021/01/18 00:17:44;;;;;;;15.55;2.17;;;;;;;8.32;68.03;101329.94;4445580;32;20122;-78
2021/01/18 00:20:11;;;;;;;13.40;1.80;;;;;;;8.34;68.00;101313.53;4445889;32;20296;-76
2021/01/18 00:22:39;;;;;;;14.65;1.50;;;;;;;8.50;67.37;101308.19;4443843;32;20855;-76
2021/01/18 00:25:08;;;;;;;8.27;1.85;;;;;;;8.45;66.85;101291.78;4444435;32;20053;-75
2021/01/18 00:27:33;;;;;;;12.80;2.30;;;;;;;8.65;66.49;101298.47;4441607;32;20096;-76
2021/01/18 00:29:59;;;;;;;6.45;1.48;;;;;;;8.68;66.41;101290.03;4443622;32;20022;-75
2021/01/18 00:32:25;;;;;;;10.20;1.60;;;;;;;8.71;66.32;101282.81;4442701;32;20070;-77
2021/01/18 00:34:51;;;;;;;11.48;1.92;;;;;;;8.66;66.70;101284.03;4428921;32;20419;-76
2021/01/18 00:37:16;;;;;;;9.23;1.85;;;;;;;8.74;66.22;101279.19;4422743;32;20026;-76
2021/01/18 00:39:44;;;;;;;11.73;2.10;;;;;;;8.66;66.73;101269.22;4429902;32;20064;-78
2021/01/18 00:42:16;;;;;;;12.25;2.20;;;;;;;8.72;66.28;101265.56;4428633;32;20090;-75
2021/01/18 00:44:42;;;;;;;18.05;2.08;;;;;;;8.67;67.05;101246.34;4429385;32;20069;-76
2021/01/18 00:47:07;;;;;;;9.95;1.92;;;;;;;8.67;67.07;101249.16;4430115;32;20018;-77
2021/01/18 00:49:33;;;;;;;10.30;2.33;;;;;;;8.79;66.53;101251.47;4429155;32;20148;-77
2021/01/18 00:51:58;;;;;;;10.50;2.08;;;;;;;8.75;66.44;101241.47;4428063;32;20084;-75
2021/01/18 00:54:24;;;;;;;12.88;2.25;;;;;;;8.80;66.72;101243.84;4427284;32;20622;-76
2021/01/18 00:56:51;;;;;;;10.75;2.00;;;;;;;8.71;66.33;101235.88;4429768;32;20077;-76
2021/01/18 00:59:16;;;;;;;15.00;3.60;;;;;;;8.79;66.47;101243.03;4429075;32;20415;-75
2021/01/18 01:01:42;;;;;;;8.77;2.60;;;;;;;8.59;68.36;101238.41;4428596;32;20029;-76
2021/01/18 01:04:08;;;;;;;10.23;2.67;;;;;;;8.66;68.41;101236.34;4428658;32;20046;-76
2021/01/18 01:06:34;;;;;;;11.52;2.85;;;;;;;8.64;68.58;101233.16;4430459;32;20083;-78
2021/01/18 01:09:01;;;;;;;18.42;3.00;;;;;;;8.63;68.97;101211.12;4423014;32;20546;-76
2021/01/18 01:11:26;;;;;;;10.00;2.90;;;;;;;8.53;69.50;101223.22;4425392;32;20097;-77
2021/01/18 01:13:52;;;;;;;16.23;3.05;;;;;;;8.57;69.22;101227.59;4426190;32;20150;-74
2021/01/18 01:16:18;;;;;;;12.50;3.00;;;;;;;8.60;69.18;101212.75;4428852;32;20039;-76
2021/01/18 01:18:44;;;;;;;12.40;2.47;;;;;;;8.52;69.03;101208.41;4426480;32;20376;-77
2021/01/18 01:21:09;;;;;;;11.55;2.97;;;;;;;8.64;69.04;101212.69;4421077;32;20060;-77
2021/01/18 01:23:35;;;;;;;9.40;3.10;;;;;;;8.64;69.24;101213.50;4417043;32;20083;-77
2021/01/18 01:26:01;;;;;;;10.13;2.55;;;;;;;8.65;68.78;101203.88;4418217;32;20453;-76
2021/01/18 01:28:27;;;;;;;6.47;2.08;;;;;;;8.70;68.87;101200.63;4418708;32;20057;-76
2021/01/18 01:30:53;;;;;;;10.77;1.92;;;;;;;8.88;68.12;101211.69;4416735;32;20038;-77
2021/01/18 01:33:18;;;;;;;12.43;2.55;;;;;;;8.98;67.54;101194.75;4418294;32;20102;-75
2021/01/18 01:35:44;;;;;;;11.45;2.42;;;;;;;8.99;67.50;101195.53;4415742;32;20030;-76
2021/01/18 01:38:10;;;;;;;9.80;2.50;;;;;;;8.71;68.09;101207.81;4419980;32;20060;-76
2021/01/18 01:40:36;;;;;;;14.40;2.90;;;;;;;8.80;68.31;101182.13;4417838;32;20030;-77
2021/01/18 01:43:03;;;;;;;6.85;2.10;;;;;;;8.92;67.59;101179.56;4417683;32;20082;-75
2021/01/18 01:45:29;;;;;;;12.23;2.60;;;;;;;8.92;67.43;101185.16;4418345;32;20048;-77
2021/01/18 01:47:56;;;;;;;15.80;2.33;;;;;;;8.91;67.63;101179.97;4411631;32;20121;-77
2021/01/18 01:50:26;;;;;;;11.30;2.80;;;;;;;8.66;68.55;101166.22;4420416;32;20053;-76
2021/01/18 01:52:56;;;;;;;9.98;2.50;;;;;;;8.61;69.15;101168.63;4418262;32;20022;-78
2021/01/18 01:55:27;;;;;;;14.90;2.67;;;;;;;8.49;69.30;101155.94;4413374;32;20086;-76
2021/01/18 01:57:54;;;;;;;8.68;2.50;;;;;;;8.53;69.42;101156.69;4416816;32;20038;-77
2021/01/18 02:00:21;;;;;;;7.03;2.30;;;;;;;8.72;68.49;101152.50;4417943;32;20038;-77
2021/01/18 02:02:46;;;;;;;13.75;1.98;;;;;;;8.70;68.70;101161.34;4414973;32;20162;-76
2021/01/18 02:05:14;;;;;;;9.55;2.22;;;;;;;8.76;67.92;101159.69;4416144;32;20074;-76
2021/01/18 02:07:40;;;;;;;7.65;2.22;;;;;;;8.67;68.34;101164.19;4414320;32;20088;-77
2021/01/18 02:10:08;;;;;;;12.50;2.30;;;;;;;8.77;68.15;101152.06;4417071;32;20438;-75
2021/01/18 02:12:34;;;;;;;15.52;2.47;;;;;;;8.59;68.67;101159.88;4416081;32;20058;-78
2021/01/18 02:18:12;;;;;;;10.23;2.35;;;;;;;8.71;68.46;101151.72;3994839;32;15024072;-76
2021/01/18 02:25:56;;;;;;;6.65;2.00;;;;;;;8.69;68.51;101144.94;3987818;32;15026820;-75
2021/01/18 02:28:53;;;;;;;10.35;2.05;;;;;;;8.69;68.51;101144.94;4445838;32;20029;-77
2021/01/18 02:36:46;;;;;;;7.45;2.55;;;;;;;8.33;69.60;101141.66;3984330;32;15027011;-76
2021/01/18 02:41:57;;;;;;;8.48;2.53;;;;;;;7.91;70.52;101131.53;4012842;31;15019857;-76
2021/01/18 02:44:25;;;;;;;6.18;2.00;;;;;;;7.76;71.03;101132.84;4454138;32;20111;-74
2021/01/18 02:46:51;;;;;;;8.95;2.20;;;;;;;7.82;70.67;101141.59;4468835;32;20033;-76
2021/01/18 02:49:19;;;;;;;10.52;2.28;;;;;;;7.79;70.81;101140.44;4460844;32;20087;-74
2021/01/18 02:51:47;;;;;;;13.35;2.37;;;;;;;7.83;70.83;101135.59;4461902;32;20093;-76
2021/01/18 02:54:13;;;;;;;11.73;2.30;;;;;;;7.83;70.72;101129.97;4463478;32;20088;-77
2021/01/18 02:56:40;;;;;;;6.15;1.80;;;;;;;7.83;70.54;101135.59;4462148;32;20394;-75
2021/01/18 02:59:10;;;;;;;13.68;2.37;;;;;;;7.78;70.67;101122.03;4453136;32;20374;-75
2021/01/18 03:04:30;;;;;;;10.68;1.92;;;;;;;7.91;70.61;101133.53;3987900;32;15026669;-76
2021/01/18 03:07:04;;;;;;;7.47;2.30;;;;;;;7.88;70.22;101131.56;4432988;32;20397;-77
2021/01/18 03:09:44;;;;;;;12.10;2.30;;;;;;;7.81;70.55;101128.81;4433637;32;20017;-80
2021/01/18 03:12:12;;;;;;;9.63;2.60;;;;;;;7.81;70.52;101121.22;4436031;32;20394;-76
2021/01/18 03:14:44;;;;;;;10.75;2.80;;;;;;;7.75;70.60;101136.84;4440692;32;20466;-77
2021/01/18 03:17:17;;;;;;;6.30;2.72;;;;;;;7.81;70.46;101135.22;4445814;32;20021;-76
2021/01/18 03:19:44;;;;;;;8.50;2.28;;;;;;;7.79;70.20;101120.00;4444133;32;20026;-75
2021/01/18 03:22:20;;;;;;;5.97;2.53;;;;;;;7.64;71.04;101127.72;4435747;32;20094;-76
2021/01/18 03:24:46;;;;;;;15.18;2.53;;;;;;;7.74;70.44;101114.84;4433600;32;20100;-77
2021/01/18 03:27:13;;;;;;;10.57;2.72;;;;;;;7.71;70.70;101113.66;4436922;32;20356;-78
2021/01/18 03:29:39;;;;;;;14.07;2.75;;;;;;;7.61;70.87;101122.94;4436037;32;20458;-76
2021/01/18 03:32:06;;;;;;;10.27;2.67;;;;;;;7.59;71.21;101124.56;4441891;32;20049;-78
2021/01/18 03:34:33;;;;;;;12.80;3.30;;;;;;;7.62;71.24;101118.94;4435605;32;20056;-75
2021/01/18 03:36:59;;;;;;;8.82;3.58;;;;;;;7.64;71.28;101102.50;4437688;32;20043;-77
2021/01/18 03:39:24;;;;;;;10.00;3.37;;;;;;;7.65;71.37;101106.09;4437549;32;20340;-75
2021/01/18 03:41:50;;;;;;;14.00;3.60;;;;;;;7.68;71.37;101100.50;4437632;32;20052;-78
2021/01/18 03:44:16;;;;;;;7.80;2.80;;;;;;;7.53;71.67;101089.78;4435300;32;20423;-77
2021/01/18 03:46:45;;;;;;;8.98;3.03;;;;;;;7.60;71.63;101096.12;4442781;32;20080;-76
2021/01/18 03:49:12;;;;;;;16.12;3.45;;;;;;;7.58;71.64;101092.16;4435743;32;20100;-75
2021/01/18 03:51:38;;;;;;;11.20;3.40;;;;;;;7.57;71.74;101088.56;4437655;32;20415;-75
2021/01/18 03:54:05;;;;;;;9.98;2.70;;;;;;;7.53;71.70;101084.19;4431552;32;20034;-76
2021/01/18 03:56:31;;;;;;;12.82;3.37;;;;;;;7.52;71.46;101074.97;4432395;32;20043;-76
2021/01/18 03:58:56;;;;;;;7.85;3.37;;;;;;;7.44;71.85;101072.62;4437310;32;20041;-77
2021/01/18 04:01:22;;;;;;;10.70;3.40;;;;;;;7.47;71.85;101077.41;4434710;32;20072;-76
2021/01/18 04:03:47;;;;;;;9.27;2.95;;;;;;;7.42;71.83;101081.44;4431283;32;20065;-77
2021/01/18 04:06:13;;;;;;;11.52;2.62;;;;;;;7.39;71.62;101089.84;4434606;32;20048;-76
2021/01/18 04:08:39;;;;;;;7.10;2.65;;;;;;;7.34;71.93;101084.69;4433111;32;20057;-76
2021/01/18 04:11:04;;;;;;;7.87;2.75;;;;;;;7.25;72.28;101079.53;4439624;32;20038;-76
2021/01/18 04:13:30;;;;;;;9.25;3.10;;;;;;;7.25;72.13;101087.13;4434634;32;20407;-77
2021/01/18 04:15:55;;;;;;;10.95;2.60;;;;;;;7.25;72.16;101078.75;4426615;32;20048;-76
2021/01/18 04:18:21;;;;;;;15.27;2.80;;;;;;;7.23;72.11;101078.34;4429369;32;20076;-77
2021/01/18 04:20:47;;;;;;;6.47;2.28;;;;;;;7.25;72.18;101070.34;4422751;32;20542;-75
2021/01/18 04:23:12;;;;;;;9.20;2.10;;;;;;;7.25;71.83;101056.34;4422698;32;20060;-77
2021/01/18 04:25:38;;;;;;;3.90;2.12;;;;;;;7.26;72.03;101041.13;4421944;32;20041;-76
2021/01/18 04:28:05;;;;;;;10.75;2.60;;;;;;;7.24;72.11;101043.56;4424158;32;20095;-75
2021/01/18 04:30:33;;;;;;;14.02;2.60;;;;;;;7.28;71.96;101036.75;4430010;32;20022;-77
2021/01/18 04:33:03;;;;;;;5.43;1.98;;;;;;;7.27;72.05;101034.34;4423762;32;20083;-77
2021/01/18 04:35:30;;;;;;;10.27;2.33;;;;;;;7.25;71.79;101045.16;4428457;32;20371;-77
2021/01/18 04:37:56;;;;;;;6.32;2.62;;;;;;;7.24;71.83;101052.75;4421955;32;20042;-76
2021/01/18 04:40:24;;;;;;;10.10;2.60;;;;;;;7.14;72.20;101047.19;4427631;32;20022;-76
2021/01/18 04:42:50;;;;;;;5.18;1.80;;;;;;;7.28;71.61;101064.72;4426806;32;20070;-78
2021/01/18 04:45:20;;;;;;;11.82;1.87;;;;;;;7.33;71.24;101063.50;4425852;32;20395;-75
2021/01/18 04:47:48;;;;;;;5.65;1.70;;;;;;;7.25;71.64;101062.75;4421110;32;20026;-76
2021/01/18 04:50:16;;;;;;;7.55;1.40;;;;;;;7.43;71.17;101062.66;4421771;32;20094;-75
2021/01/18 04:55:39;;;;;;;6.60;1.40;;;;;;;8.00;69.49;101075.81;3986889;32;15023651;-75
2021/01/18 04:58:28;;;;;;;11.10;1.42;;;;;;;8.00;69.49;101075.81;4445360;32;20073;-76
2021/01/18 05:00:55;;;;;;;10.00;1.55;;;;;;;7.57;69.93;101073.75;4446138;32;20222;-76
2021/01/18 05:03:23;;;;;;;12.27;1.33;;;;;;;7.39;70.78;101068.25;4446453;32;20037;-77
2021/01/18 05:11:12;;;;;;;8.93;2.50;;;;;;;7.96;69.17;101057.44;4005950;31;15016859;-78
2021/01/18 05:13:39;;;;;;;5.93;1.00;;;;;;;7.96;69.17;101057.44;4474066;32;20202;-77
2021/01/18 05:16:07;;;;;;;7.90;0.98;;;;;;;7.55;69.89;101059.38;4458882;32;20033;-77
2021/01/18 05:18:34;;;;;;;6.12;1.52;;;;;;;7.51;70.09;101045.38;4461527;32;20041;-78
2021/01/18 05:21:03;;;;;;;5.18;1.08;;;;;;;7.55;70.25;101045.38;4466084;32;20088;-77
2021/01/18 05:23:29;;;;;;;8.75;1.08;;;;;;;7.50;70.36;101062.59;4453761;32;20040;-77
2021/01/18 05:26:22;;;;;;;8.52;0.88;;;;;;;7.47;70.45;101055.00;4469783;32;20053;-76
2021/01/18 05:28:49;;;;;;;5.93;1.35;;;;;;;7.56;70.20;101060.94;4458951;32;20085;-77
2021/01/18 05:34:13;;;;;;;3.35;1.10;;;;;;;8.04;69.52;101067.41;3986040;32;15023757;-75
2021/01/18 05:41:52;;;;;;;3.65;1.20;;;;;;;8.04;69.71;101073.00;3990341;32;15024321;-76
2021/01/18 05:44:19;;;;;;;3.03;1.30;;;;;;;8.04;69.71;101073.00;4440254;32;20017;-75
2021/01/18 05:46:46;;;;;;;6.90;1.35;;;;;;;7.72;70.22;101052.81;4441078;32;20024;-75
2021/01/18 05:49:15;;;;;;;9.20;1.25;;;;;;;7.71;70.24;101062.44;4441043;32;20107;-74
2021/01/18 05:51:42;;;;;;;5.90;1.40;;;;;;;7.69;70.44;101057.25;4440314;32;20093;-75
2021/01/18 05:54:11;;;;;;;2.92;1.52;;;;;;;7.78;70.93;101052.00;4438939;32;20067;-76
2021/01/18 05:56:40;;;;;;;4.78;1.40;;;;;;;7.70;71.92;101063.66;4442853;32;20461;-77
2021/01/18 05:59:23;;;;;;;6.28;1.67;;;;;;;7.65;72.60;101058.50;4442296;32;20048;-75
2021/01/18 06:01:51;;;;;;;7.65;1.50;;;;;;;7.59;72.39;101040.53;4439650;32;20080;-75
2021/01/18 06:09:52;;;;;;;4.57;1.40;;;;;;;7.71;71.28;101037.25;4010713;31;15073067;-79
2021/01/18 06:12:21;;;;;;;3.22;1.15;;;;;;;7.61;71.23;101032.53;4468977;32;20266;-78
2021/01/18 06:17:45;;;;;;;2.72;1.30;;;;;;;7.83;70.24;101051.53;3987403;32;15026714;-77
2021/01/18 06:20:28;;;;;;;5.95;1.60;;;;;;;7.73;70.59;101035.59;4436909;32;20072;-77
2021/01/18 06:22:56;;;;;;;11.50;1.87;;;;;;;7.82;71.05;101021.94;4442450;32;20025;-76
2021/01/18 06:25:31;;;;;;;4.32;1.58;;;;;;;7.82;70.44;101032.34;4435617;32;20106;-75
2021/01/18 06:27:57;;;;;;;;;;;;;;;7.86;70.49;101027.50;4438882;32;20138;-74
2021/01/18 06:33:12;;;;;;;6.05;1.90;;;;;;;8.34;69.48;101028.28;4012263;31;15015819;-77
2021/01/18 06:35:38;;;;;;;2.12;1.60;;;;;;;8.34;69.48;101028.28;4470543;32;20081;-77
2021/01/18 06:38:06;;;;;;;4.78;2.05;;;;;;;7.87;70.30;101015.09;4468157;32;20053;-77
2021/01/18 06:40:40;;;;;;;4.30;2.20;;;;;;;7.76;70.80;101017.16;4471456;32;20029;-75
2021/01/18 06:43:09;;;;;;;5.83;2.07;;;;;;;7.79;70.75;101007.94;4471494;32;20119;-76
2021/01/18 06:45:37;;;;;;;3.37;2.22;;;;;;;7.69;70.70;101012.44;4474703;32;20418;-77
2021/01/18 06:48:05;;;;;;;4.57;2.53;;;;;;;7.76;70.84;101022.78;4475135;32;20062;-76
2021/01/18 06:50:34;;;;;;;5.12;2.92;;;;;;;7.71;71.32;101026.03;4472350;32;20066;-76
2021/01/18 06:53:17;;;;;;;6.65;2.70;;;;;;;7.82;71.09;101026.72;4471247;32;20097;-76
2021/01/18 07:06:40;;;;;;;9.85;2.45;;;;;;;8.23;69.86;101024.00;3986461;32;15027960;-75
2021/01/18 07:09:15;;;;;;;6.50;2.40;;;;;;;8.23;69.86;101024.00;4433597;32;20096;-77
2021/01/18 07:11:41;;;;;;;2.83;2.05;;;;;;;7.87;70.61;101029.09;4442397;32;20082;-75
2021/01/18 07:14:11;;;;;;;6.53;2.20;;;;;;;7.79;71.42;101035.94;4438765;32;20026;-75
2021/01/18 07:16:40;;;;;;;7.35;2.15;;;;;;;7.79;71.92;101035.94;4437991;32;20052;-75
2021/01/18 07:19:08;;;;;;;4.18;1.95;;;;;;;7.84;71.34;101036.34;4441064;32;20063;-76
2021/01/18 07:21:42;;;;;;;3.58;1.77;;;;;;;7.85;71.37;101034.31;4436265;32;20052;-76
2021/01/18 07:24:14;;;;;;;2.03;0.88;;;;;;;7.89;71.12;101026.69;4440492;32;20104;-76
2021/01/18 07:29:25;;;;;;;4.45;1.37;;;;;;;8.14;72.21;101032.34;3988662;32;15023022;-76
2021/01/18 07:31:54;;;;;;;4.90;1.58;;;;;;;8.14;72.20;101038.47;4441366;32;20089;-76
2021/01/18 07:34:24;;;;;;;3.45;1.33;;;;;;;7.69;73.26;101023.66;4439824;32;20030;-75
2021/01/18 07:36:51;;;;;;;4.10;1.83;;;;;;;7.64;73.62;101021.28;4437749;32;20084;-74
2021/01/18 07:39:34;;;;;;;3.83;1.87;;;;;;;7.65;74.38;101022.88;4430171;32;20096;-76
2021/01/18 07:42:02;;;;;;;3.25;1.50;;;;;;;7.72;73.53;101025.62;4438826;32;20067;-75
2021/01/18 07:47:11;;;;;;;4.97;2.10;;;;;;;8.09;71.75;101026.47;3989027;32;15024023;-78
2021/01/18 07:49:41;;;;;;;4.37;1.80;;;;;;;8.09;71.78;101025.69;4444071;32;20060;-77
2021/01/18 07:52:17;;;;;;;2.65;1.70;;;;;;;7.75;72.30;101024.78;4444419;32;20131;-78
2021/01/18 07:54:45;;;;;;;5.50;2.15;;;;;;;7.82;72.44;101021.13;4446151;32;20112;-75
2021/01/18 07:57:28;;;;;;;4.30;1.95;;;;;;;7.83;72.76;101008.72;4444773;32;20089;-76
2021/01/18 08:02:55;;;;;;;5.68;1.75;;;;;;;8.15;70.78;101014.81;3983786;32;15024117;-77
2021/01/18 08:05:38;;;;;;;6.68;1.52;;;;;;;8.15;70.78;101014.81;4441738;32;20092;-77
2021/01/18 08:08:27;;;;;;;2.55;1.50;;;;;;;7.78;71.26;101006.34;4436373;32;20034;-75
2021/01/18 08:21:41;;;;;;;3.30;1.42;;;;;;;8.17;70.29;101023.63;3993699;32;15022982;-76
2021/01/18 08:27:01;;;;;;;6.07;1.70;;;;;;;8.26;69.92;101014.75;4010838;31;15017917;-78
2021/01/18 08:35:21;;;;;;;6.57;2.42;;;;;;;7.90;70.52;101005.84;3985413;32;15025571;-75
2021/01/18 08:38:06;;;;;;;3.17;2.35;;;;;;;7.63;71.57;101004.88;4440992;32;20112;-78
2021/01/18 08:40:41;;;;;;;;;;;;;;;7.66;71.77;101006.84;4440810;32;20026;-78
2021/01/18 08:43:07;;;;;;;4.22;2.37;;;;;;;7.63;71.83;101008.47;4436060;32;20265;-78
2021/01/18 08:45:37;;;;;;;2.20;1.90;;;;;;;7.61;71.80;101001.72;4440558;32;20103;-75
2021/01/18 08:48:06;;;;;;;5.82;1.83;;;;;;;7.65;71.44;101022.06;4444923;32;20065;-80
2021/01/18 08:53:44;;;;;;;3.22;1.62;;;;;;;7.76;71.40;100997.56;3986674;32;15027905;-76
2021/01/18 08:59:14;;;;;;;4.57;1.42;;;;;;;8.27;69.90;100994.72;3983988;32;15023243;-78
2021/01/18 09:01:39;;;;;;;6.75;1.80;;;;;;;8.27;69.90;100994.72;4441694;32;20025;-76
2021/01/18 09:04:05;;;;;;;10.82;2.12;;;;;;;7.90;70.67;100984.25;4443445;32;20085;-78
2021/01/18 09:06:31;;;;;;;3.55;1.17;;;;;;;7.81;70.35;100989.53;4438729;32;20037;-79
2021/01/18 09:09:07;;;;;;;3.97;1.15;;;;;;;7.90;69.90;101000.25;4425300;32;20029;-77
2021/01/18 09:11:34;;;;;;;2.92;0.93;;;;;;;8.00;69.37;100994.53;4434474;32;20090;-76
2021/01/18 09:14:00;;;;;;;4.68;1.60;;;;;;;7.96;69.42;100984.59;4434510;32;20034;-76
2021/01/18 09:16:26;;;;;;;6.78;2.10;;;;;;;7.91;69.44;100987.81;4437651;32;20108;-78
2021/01/18 09:18:52;;;;;;;3.62;1.55;;;;;;;7.88;69.84;100985.84;4440178;32;20170;-77
2021/01/18 09:21:19;;;;;;;7.22;1.25;;;;;;;7.94;69.31;100982.19;4442700;32;20085;-75
2021/01/18 09:23:45;;;;;;;5.68;1.20;;;;;;;7.87;70.10;100984.25;4443772;32;20060;-76
2021/01/18 09:26:14;;;;;;;1.83;0.60;;;;;;;7.80;69.99;100985.13;4443428;32;20034;-74
2021/01/18 09:28:50;;;;;;;5.60;1.25;;;;;;;7.86;69.72;100977.84;4437143;32;20197;-75
2021/01/18 09:31:16;;;;;;;3.58;1.02;;;;;;;7.70;70.03;100986.00;4442064;32;20335;-77
2021/01/18 09:33:42;;;;;;;4.97;0.80;;;;;;;7.90;69.27;100983.44;4434079;32;20109;-75
2021/01/18 09:36:13;;;;;;;1.67;0.60;;;;;;;7.92;69.05;100983.81;4423578;32;20046;-74
2021/01/18 09:38:41;;;;;;;3.45;0.52;;;;;;;7.87;69.50;100984.25;4426538;32;20042;-74
2021/01/18 09:41:07;;;;;;;2.10;0.50;;;;;;;7.97;69.00;100986.16;4427013;32;20076;-76
2021/01/18 09:43:33;;;;;;;3.75;0.70;;;;;;;7.91;69.38;100997.03;4425060;32;20397;-75
2021/01/18 09:46:01;;;;;;;3.10;0.52;;;;;;;7.84;70.00;100990.69;4425270;32;20033;-77
2021/01/18 09:48:27;;;;;;;2.58;0.68;;;;;;;7.86;69.65;101005.09;4422299;32;20061;-75
2021/01/18 09:53:36;;;;;;;2.87;0.73;;;;;;;8.27;69.28;101011.53;3983684;32;15024993;-75
2021/01/18 09:56:04;;;;;;;6.10;1.10;;;;;;;8.27;69.28;101011.53;4436613;32;20063;-75
2021/01/18 09:58:37;;;;;;;2.75;0.75;;;;;;;7.90;70.97;100998.25;4436896;32;20354;-77
2021/01/18 10:01:08;;;;;;;4.40;1.20;;;;;;;7.93;70.12;100993.81;4433079;32;20025;-76
2021/01/18 10:03:36;;;;;;;2.03;0.80;;;;;;;8.05;70.37;100982.09;4436887;32;20076;-77
2021/01/18 10:08:44;;;;;;;5.18;1.50;;;;;;;8.39;69.15;100979.34;3980355;32;15027706;-77
2021/01/18 10:11:10;;;;;;;3.72;1.23;;;;;;;8.39;69.15;100979.34;4433519;32;20066;-78
2021/01/18 10:13:36;;;;;;;7.57;2.17;;;;;;;7.92;70.44;100967.78;4437748;32;20363;-76
2021/01/18 10:16:10;;;;;;;9.05;3.20;;;;;;;8.00;69.95;100966.53;4435154;32;20033;-74
2021/01/18 10:18:49;;;;;;;3.45;0.88;;;;;;;7.91;69.95;100963.41;4433073;32;20100;-75
2021/01/18 10:21:15;;;;;;;5.75;1.50;;;;;;;7.92;69.66;100969.81;4432500;32;20033;-74
2021/01/18 10:23:46;;;;;;;4.12;1.12;;;;;;;7.76;70.81;100958.34;4432677;32;20029;-76
2021/01/18 10:26:23;;;;;;;8.05;1.30;;;;;;;7.87;70.03;100951.44;4437933;32;20033;-78
2021/01/18 10:31:29;;;;;;;6.00;1.30;;;;;;;8.45;68.48;100964.47;3986890;32;15052357;-74
2021/01/18 10:36:47;;;;;;;2.75;0.88;;;;;;;8.59;68.02;100964.28;3984127;32;15026538;-78
2021/01/18 10:39:35;;;;;;;4.45;1.05;;;;;;;8.59;68.02;100964.28;4441078;32;20072;-78
2021/01/18 10:44:50;;;;;;;6.10;1.40;;;;;;;8.83;67.29;100967.97;3984224;32;15023541;-74
2021/01/18 10:47:21;;;;;;;3.22;1.00;;;;;;;8.83;67.29;100967.97;4443554;32;20033;-74
2021/01/18 10:49:55;;;;;;;4.78;1.00;;;;;;;8.27;68.16;100951.84;4442985;32;20072;-75
2021/01/18 10:52:34;;;;;;;6.03;0.98;;;;;;;8.39;67.94;100949.31;4444432;32;20081;-76
2021/01/18 10:55:03;;;;;;;5.40;1.52;;;;;;;8.30;67.34;100935.00;4442880;32;20703;-75
2021/01/18 10:57:29;;;;;;;9.98;2.00;;;;;;;8.45;67.55;100935.59;4438111;32;20393;-74
2021/01/18 11:00:12;;;;;;;5.37;1.15;;;;;;;8.31;67.32;100930.97;4430866;32;20743;-76
2021/01/18 11:02:40;;;;;;;4.70;1.05;;;;;;;8.56;66.44;100930.69;4436184;32;20056;-76
2021/01/18 11:05:08;;;;;;;5.87;1.35;;;;;;;8.64;65.95;100927.34;4431033;32;20041;-74
2021/01/18 11:07:35;;;;;;;5.62;1.70;;;;;;;8.64;66.24;100924.53;4426138;32;20096;-76
2021/01/18 11:10:02;;;;;;;8.25;1.77;;;;;;;8.61;65.83;100933.81;4435348;32;20399;-77
2021/01/18 11:15:10;;;;;;;4.53;1.48;;;;;;;9.11;64.67;100931.09;3994254;32;15023966;-77
2021/01/18 11:17:36;;;;;;;5.65;1.20;;;;;;;9.11;64.67;100931.09;4437744;32;20418;-76
2021/01/18 11:20:06;;;;;;;6.55;1.50;;;;;;;8.75;65.13;100921.59;4449758;32;20041;-77
2021/01/18 11:22:33;;;;;;;5.72;1.10;;;;;;;8.87;64.50;100918.22;4454183;32;20069;-76
2021/01/18 11:24:59;;;;;;;6.70;1.10;;;;;;;8.69;64.17;100912.06;4453109;32;20064;-75
2021/01/18 11:27:25;;;;;;;4.25;1.08;;;;;;;8.79;64.11;100911.91;4451191;32;20167;-75
2021/01/18 11:29:50;;;;;;;6.07;0.98;;;;;;;8.76;63.93;100918.37;4446859;32;20025;-75
2021/01/18 11:32:17;;;;;;;8.00;1.05;;;;;;;8.76;63.82;100926.78;4451764;32;20098;-79
2021/01/18 11:34:43;;;;;;;6.70;0.77;;;;;;;8.50;64.30;100905.09;4449101;32;20034;-77
2021/01/18 11:37:09;;;;;;;3.17;0.75;;;;;;;8.53;64.18;100903.47;4453852;32;20043;-77
2021/01/18 11:39:37;;;;;;;2.00;0.68;;;;;;;8.49;64.14;100902.69;4435875;32;20063;-77
2021/01/18 11:42:05;;;;;;;7.85;1.10;;;;;;;8.46;64.92;100909.16;4446356;32;20021;-76
2021/01/18 11:44:31;;;;;;;2.65;0.80;;;;;;;8.47;64.73;100875.06;4444954;32;20446;-77
2021/01/18 11:46:58;;;;;;;2.55;0.60;;;;;;;8.49;64.76;100900.69;4451270;32;20072;-78
2021/01/18 11:49:25;;;;;;;2.28;0.80;;;;;;;8.41;64.52;100898.41;4442191;32;20072;-77
2021/01/18 11:51:50;;;;;;;5.25;1.17;;;;;;;8.68;64.36;100886.00;4446568;32;20108;-76
2021/01/18 11:54:16;;;;;;;2.17;0.80;;;;;;;8.80;63.92;100879.81;4447093;32;20442;-77
2021/01/18 11:56:42;;;;;;;6.60;1.00;;;;;;;8.80;63.92;100873.44;4450983;32;20427;-78
2021/01/18 11:59:09;;;;;;;2.53;0.80;;;;;;;8.73;63.11;100871.50;4433998;32;20112;-79
2021/01/18 12:01:43;;;;;;;4.90;0.90;;;;;;;8.84;63.27;100882.59;4450472;32;20125;-79
2021/01/18 12:04:09;;;;;;;5.10;1.27;;;;;;;8.81;63.37;100864.56;4447958;32;20099;-77
2021/01/18 12:06:36;;;;;;;4.45;0.90;;;;;;;8.76;63.70;100881.09;4447451;32;20097;-78
2021/01/18 12:09:03;;;;;;;3.08;0.93;;;;;;;8.89;62.95;100879.28;4449058;32;20065;-77
2021/01/18 12:11:29;;;;;;;4.62;1.00;;;;;;;8.87;63.51;100881.75;4446042;32;20073;-76
2021/01/18 12:13:55;;;;;;;5.78;0.73;;;;;;;8.88;63.78;100881.31;4446831;32;20072;-76
2021/01/18 12:16:24;;;;;;;3.87;1.00;;;;;;;8.79;63.50;100883.84;4449177;32;20065;-75
2021/01/18 12:18:50;;;;;;;4.97;1.23;;;;;;;9.01;63.22;100876.69;4452903;32;20140;-77
2021/01/18 12:21:15;;;;;;;5.25;0.98;;;;;;;9.02;63.52;100880.31;4450841;32;21621;-75
2021/01/18 12:23:41;;;;;;;4.75;1.00;;;;;;;9.07;61.66;100877.81;4446389;32;20089;-77
2021/01/18 12:26:07;;;;;;;6.90;1.00;;;;;;;9.28;61.98;100877.47;4440689;32;20119;-76
2021/01/18 12:28:33;;;;;;;9.77;1.45;;;;;;;9.27;62.19;100878.66;4436497;32;20038;-76
2021/01/18 12:30:59;;;;;;;5.57;1.55;;;;;;;9.26;62.19;100871.47;4438860;32;20112;-76
2021/01/18 12:33:24;;;;;;;2.83;0.98;;;;;;;9.24;62.17;100865.47;4433529;32;20072;-76
2021/01/18 12:35:51;;;;;;;6.47;0.90;;;;;;;9.27;62.01;100859.00;4434871;32;20391;-77
2021/01/18 12:38:17;;;;;;;7.72;1.37;;;;;;;9.44;61.38;100852.31;4434735;32;20081;-77
2021/01/18 12:40:43;;;;;;;6.10;1.30;;;;;;;9.30;61.79;100835.69;4442392;32;20045;-77
2021/01/18 12:43:09;;;;;;;4.28;1.33;;;;;;;9.48;60.99;100841.78;4437862;32;20041;-76
2021/01/18 12:45:34;;;;;;;2.92;1.10;;;;;;;9.58;60.38;100838.00;4440352;32;20104;-76
2021/01/18 12:48:00;;;;;;;4.75;1.02;;;;;;;9.26;61.07;100820.94;4437343;32;20037;-77
2021/01/18 12:50:26;;;;;;;8.77;1.20;;;;;;;9.27;61.63;100825.31;4436565;32;20446;-75
2021/01/18 12:52:51;;;;;;;7.12;1.92;;;;;;;9.17;62.14;100819.87;4425779;32;20090;-77
2021/01/18 12:55:20;;;;;;;6.80;1.42;;;;;;;9.21;62.01;100818.59;4436438;32;20088;-75
2021/01/18 12:57:45;;;;;;;6.07;1.10;;;;;;;9.05;62.21;100807.25;4421349;32;20118;-76
2021/01/18 13:00:11;;;;;;;3.62;0.80;;;;;;;9.04;62.79;100805.66;4435319;32;20128;-78
2021/01/18 13:02:39;;;;;;;6.85;0.93;;;;;;;9.14;62.36;100790.66;4411067;32;20077;-75
2021/01/18 13:05:06;;;;;;;4.47;1.27;;;;;;;9.13;62.69;100785.47;4442647;32;20141;-76
2021/01/18 13:07:31;;;;;;;4.95;1.05;;;;;;;8.99;62.97;100782.91;4439667;32;20099;-76
2021/01/18 13:09:58;;;;;;;5.15;1.52;;;;;;;8.85;62.92;100785.94;4436717;32;20025;-77
2021/01/18 13:12:25;;;;;;;5.82;1.30;;;;;;;8.78;63.85;100778.47;4422438;32;20030;-75
2021/01/18 13:14:51;;;;;;;5.70;1.23;;;;;;;8.71;63.60;100775.75;4424641;32;20126;-76
2021/01/18 13:17:17;;;;;;;9.70;2.58;;;;;;;8.73;63.50;100758.47;4422009;32;20177;-78
2021/01/18 13:19:42;;;;;;;3.72;1.10;;;;;;;8.78;62.94;100753.19;4434717;32;20152;-77
2021/01/18 13:22:09;;;;;;;6.60;2.60;;;;;;;8.84;62.77;100756.31;4435633;32;20029;-77
2021/01/18 13:24:34;;;;;;;4.10;1.10;;;;;;;8.84;62.71;100751.47;4438913;32;20133;-78